Archival Weather

Chicago O'Hare International

Chicago, Illinois (KORD)

Report from: Thursday, December 29, 2022 10:51 PM CST
Current time: Friday, June 21, 2024 2:17 AM CDT

Current weather – Weather history – Daily summaries
Weather forecast

Temperature13.3°C (55.9°F)
Dew point11.1°C (52.0°F)
Winds 13 kts (6.7 m/s, 15 mph) South-Southwest (200°)
Wind gusts 27 kts (13.9 m/s, 31.1 mph)
Peak wind 30 kts (15.4 m/s, 34.5 mph) South (190°) at 04:36
Visibility10 mi. (16.1 km)
Clouds Ceiling: Overcast 700 ft. (213 m)
Altimeter29.84 in.Hg (1010 mB)
Relative humidity87 %
Density altitude74 ft. (23 m)
Sea-level pressure101.1 kPa (1011 mB, 29.84 in.Hg)
Remarks System requires maintenance
Automated weather observing station with precipitation discriminator
Flight conditions Instrument Meteorological Conditions
Raw dataKORD 300451Z 20013G27KT 10SM OVC007 13/11 A2984 RMK AO2 PK WND 19030/0436 SLP106 T01330111 $
An error has occurred. This application may no longer respond until reloaded. Reload 🗙